createdAt,value
2019-01-20T00:00:21.621Z,99.90
2019-01-20T00:02:47.946Z,99.90
2019-01-20T00:05:15.659Z,99.90
2019-01-20T00:07:42.132Z,99.90
2019-01-20T00:10:10.981Z,99.90
2019-01-20T00:12:37.343Z,99.90
2019-01-20T00:15:07.355Z,99.90
2019-01-20T00:17:33.657Z,99.90
2019-01-20T00:20:00.243Z,99.90
2019-01-20T00:22:26.571Z,99.90
2019-01-20T00:24:52.789Z,99.90
2019-01-20T00:27:18.995Z,99.90
2019-01-20T00:29:45.214Z,99.90
2019-01-20T00:32:11.414Z,99.90
2019-01-20T00:34:37.695Z,99.90
2019-01-20T00:37:03.894Z,99.90
2019-01-20T00:39:39.066Z,99.90
2019-01-20T00:42:05.366Z,99.90
2019-01-20T00:44:31.634Z,99.90
2019-01-20T00:46:57.942Z,99.90
2019-01-20T00:49:24.154Z,99.90
2019-01-20T00:51:50.378Z,99.90
2019-01-20T00:54:16.791Z,99.90
2019-01-20T00:56:43.011Z,99.90
2019-01-20T00:59:09.209Z,99.90
2019-01-20T01:01:35.445Z,99.90
2019-01-20T01:04:01.762Z,99.90
2019-01-20T01:06:28.422Z,99.90
2019-01-20T01:08:54.684Z,99.90
2019-01-20T01:11:20.904Z,99.90
2019-01-20T01:13:47.122Z,99.90
2019-01-20T01:16:13.331Z,99.90
2019-01-20T01:18:39.552Z,99.90
2019-01-20T01:21:05.759Z,99.90
2019-01-20T01:23:31.971Z,99.90
2019-01-20T01:25:58.174Z,99.90
2019-01-20T01:28:24.403Z,99.90
2019-01-20T01:30:50.600Z,99.90
2019-01-20T01:33:16.811Z,99.90
2019-01-20T01:35:43.042Z,99.90
2019-01-20T01:38:09.251Z,99.90
2019-01-20T01:40:35.471Z,99.90
2019-01-20T01:43:01.670Z,99.90
2019-01-20T01:45:27.996Z,99.90
2019-01-20T01:47:54.221Z,99.90
2019-01-20T01:50:20.538Z,99.90
2019-01-20T01:52:47.147Z,99.90
2019-01-20T01:55:13.567Z,99.90
2019-01-20T01:57:39.979Z,99.90
2019-01-20T02:00:10.441Z,99.90
2019-01-20T02:02:36.738Z,99.90
2019-01-20T02:05:05.479Z,99.90
2019-01-20T02:07:51.539Z,99.90
2019-01-20T02:10:19.945Z,99.90
2019-01-20T02:12:47.473Z,99.90
2019-01-20T02:15:16.295Z,99.90
2019-01-20T02:17:42.630Z,99.90
2019-01-20T02:20:11.841Z,99.90
2019-01-20T02:22:38.360Z,99.90
2019-01-20T02:25:05.065Z,99.90
2019-01-20T02:27:31.290Z,99.90
2019-01-20T02:29:57.754Z,99.90
2019-01-20T02:32:23.976Z,99.90
2019-01-20T02:35:10.427Z,99.90
2019-01-20T02:37:36.664Z,99.90
2019-01-20T02:40:11.976Z,99.90
2019-01-20T02:42:38.191Z,99.90
2019-01-20T02:45:06.891Z,99.90
2019-01-20T02:47:33.133Z,99.90
2019-01-20T02:49:59.330Z,99.90
2019-01-20T02:52:25.565Z,99.90
2019-01-20T02:54:51.764Z,99.90
2019-01-20T02:57:17.976Z,99.90
2019-01-20T02:59:44.507Z,99.90
2019-01-20T03:02:10.906Z,99.90
2019-01-20T03:04:37.134Z,99.90
2019-01-20T03:07:03.438Z,99.90
2019-01-20T03:09:29.685Z,99.90
2019-01-20T03:12:03.273Z,99.90
2019-01-20T03:14:24.024Z,99.90
2019-01-20T03:16:50.458Z,99.90
2019-01-20T03:19:16.874Z,99.90
2019-01-20T03:21:43.079Z,99.90
2019-01-20T03:24:09.302Z,99.90
2019-01-20T03:26:35.508Z,99.90
2019-01-20T03:29:01.740Z,99.90
2019-01-20T03:31:28.144Z,99.90
2019-01-20T03:33:54.367Z,99.90
2019-01-20T03:36:20.683Z,99.90
2019-01-20T03:38:46.903Z,99.90
2019-01-20T03:41:13.117Z,99.90
2019-01-20T03:43:39.319Z,99.90
2019-01-20T03:46:05.843Z,99.90
2019-01-20T03:48:32.042Z,99.90
2019-01-20T03:50:58.278Z,99.90
2019-01-20T03:53:24.572Z,99.90
2019-01-20T03:55:51.237Z,99.90
2019-01-20T03:58:17.494Z,99.90
2019-01-20T04:00:46.487Z,99.90
2019-01-20T04:03:12.691Z,99.90
2019-01-20T04:05:38.916Z,99.90
2019-01-20T04:08:05.231Z,99.90
2019-01-20T04:10:31.770Z,99.90
2019-01-20T04:12:57.971Z,99.90
2019-01-20T04:15:24.174Z,99.90
2019-01-20T04:17:50.394Z,99.90
2019-01-20T04:20:16.926Z,99.90
2019-01-20T04:22:43.234Z,99.90
2019-01-20T04:25:15.474Z,99.90
2019-01-20T04:27:41.698Z,99.90
2019-01-20T04:30:10.212Z,99.90
2019-01-20T04:32:36.425Z,99.90
2019-01-20T04:35:04.639Z,99.90
2019-01-20T04:37:30.883Z,99.90
2019-01-20T04:39:57.094Z,99.90
2019-01-20T04:42:28.958Z,99.90
2019-01-20T04:44:51.410Z,99.90
2019-01-20T04:47:17.723Z,99.90
2019-01-20T04:49:43.930Z,99.90
2019-01-20T04:52:10.181Z,99.90
2019-01-20T04:54:36.375Z,99.90
2019-01-20T04:57:03.038Z,99.90
2019-01-20T04:59:29.270Z,99.90
2019-01-20T05:01:55.603Z,99.90
2019-01-20T05:04:21.831Z,99.90
2019-01-20T05:06:48.139Z,99.90
2019-01-20T05:09:14.367Z,99.90
2019-01-20T05:11:40.563Z,99.90
2019-01-20T05:14:06.787Z,99.90
2019-01-20T05:16:33.194Z,99.90
2019-01-20T05:18:59.415Z,99.90
2019-01-20T05:21:25.613Z,99.90
2019-01-20T05:23:51.830Z,99.90
2019-01-20T05:26:18.034Z,99.90
2019-01-20T05:28:44.265Z,99.90
2019-01-20T05:31:10.791Z,99.90
2019-01-20T05:33:37.025Z,99.90
2019-01-20T05:36:03.327Z,99.90
2019-01-20T05:38:29.658Z,99.90
2019-01-20T05:40:55.931Z,99.90
2019-01-20T05:43:22.267Z,99.90
2019-01-20T05:45:48.467Z,99.90
2019-01-20T05:48:14.686Z,99.90
2019-01-20T05:50:41.007Z,99.90
2019-01-20T05:53:07.211Z,99.90
2019-01-20T05:55:34.171Z,99.90
2019-01-20T05:58:00.394Z,99.90
2019-01-20T06:00:28.170Z,99.90
2019-01-20T06:02:54.490Z,99.90
2019-01-20T06:05:20.730Z,99.90
2019-01-20T06:07:47.030Z,99.90
2019-01-20T06:10:13.562Z,99.90
2019-01-20T06:12:39.918Z,99.90
2019-01-20T06:15:12.320Z,99.90
2019-01-20T06:17:38.519Z,99.90
2019-01-20T06:20:07.138Z,99.90
2019-01-20T06:22:33.339Z,99.90
2019-01-20T06:24:59.583Z,99.90
2019-01-20T06:27:25.791Z,99.90
2019-01-20T06:29:52.199Z,99.90
2019-01-20T06:32:18.427Z,99.90
2019-01-20T06:34:44.622Z,99.90
2019-01-20T06:37:10.838Z,99.90
2019-01-20T06:39:37.342Z,99.90
2019-01-20T06:42:03.563Z,99.90
2019-01-20T06:44:29.781Z,99.90
2019-01-20T06:46:56.127Z,99.90
2019-01-20T06:49:22.339Z,99.90
2019-01-20T06:51:48.564Z,99.90
2019-01-20T06:54:14.762Z,99.90
2019-01-20T06:56:40.978Z,99.90
2019-01-20T06:59:07.182Z,99.90
2019-01-20T07:01:33.418Z,99.90
2019-01-20T07:03:59.650Z,99.90
2019-01-20T07:06:25.854Z,99.90
2019-01-20T07:08:52.102Z,99.90
2019-01-20T07:11:18.389Z,99.90
2019-01-20T07:13:44.630Z,99.90
2019-01-20T07:16:10.834Z,99.90
2019-01-20T07:18:37.050Z,99.90
2019-01-20T07:21:03.457Z,99.90
2019-01-20T07:23:29.688Z,99.90
2019-01-20T07:25:55.998Z,99.90
2019-01-20T07:28:22.314Z,99.90
2019-01-20T07:30:48.519Z,99.90
2019-01-20T07:33:14.986Z,99.90
2019-01-20T07:35:41.295Z,99.90
2019-01-20T07:38:07.516Z,99.90
2019-01-20T07:40:33.818Z,99.90
2019-01-20T07:43:00.058Z,99.90
2019-01-20T07:45:26.307Z,99.90
2019-01-20T07:47:52.554Z,99.90
2019-01-20T07:50:20.967Z,99.90
2019-01-20T07:52:47.279Z,99.90
2019-01-20T07:55:13.522Z,99.90
2019-01-20T07:57:39.826Z,99.90
2019-01-20T08:00:26.273Z,99.90
2019-01-20T08:02:52.689Z,99.90
2019-01-20T08:05:20.919Z,99.90
2019-01-20T08:07:47.325Z,99.90
2019-01-20T08:10:19.862Z,99.90
2019-01-20T08:12:46.470Z,99.90
2019-01-20T08:15:14.397Z,99.90
2019-01-20T08:17:40.611Z,99.90
2019-01-20T08:20:10.620Z,99.90
2019-01-20T08:22:36.907Z,99.90
2019-01-20T08:25:06.038Z,99.90
2019-01-20T08:27:32.331Z,99.90
2019-01-20T08:29:58.667Z,99.90
2019-01-20T08:32:24.867Z,99.90
2019-01-20T08:34:51.174Z,99.90
2019-01-20T08:37:17.382Z,99.90
2019-01-20T08:39:43.579Z,99.90
2019-01-20T08:42:09.802Z,99.90
2019-01-20T08:44:36.028Z,99.90
2019-01-20T08:47:11.282Z,99.90
2019-01-20T08:49:37.490Z,99.90
2019-01-20T08:52:03.867Z,99.90
2019-01-20T08:54:30.182Z,99.90
2019-01-20T08:56:56.406Z,99.90
2019-01-20T08:59:22.608Z,99.90
2019-01-20T09:01:48.830Z,99.90
2019-01-20T09:04:15.034Z,99.90
2019-01-20T09:06:41.374Z,99.90
2019-01-20T09:09:07.578Z,99.90
2019-01-20T09:11:33.798Z,99.90
2019-01-20T09:14:00.001Z,99.90
2019-01-20T09:16:26.231Z,99.90
2019-01-20T09:18:52.827Z,99.90
2019-01-20T09:21:19.036Z,99.90
2019-01-20T09:23:45.315Z,99.90
2019-01-20T09:26:11.524Z,99.90
2019-01-20T09:28:37.750Z,99.90
2019-01-20T09:31:03.959Z,99.90
2019-01-20T09:33:30.178Z,99.90
2019-01-20T09:35:56.377Z,99.90
2019-01-20T09:38:22.593Z,99.90
2019-01-20T09:40:48.802Z,99.90
2019-01-20T09:43:15.037Z,99.90
2019-01-20T09:45:41.337Z,99.90
2019-01-20T09:48:07.658Z,99.90
2019-01-20T09:50:33.864Z,99.90
2019-01-20T09:53:00.086Z,99.90
2019-01-20T09:55:26.400Z,99.90
2019-01-20T09:57:52.718Z,99.90
2019-01-20T10:00:25.985Z,99.90
2019-01-20T10:02:52.411Z,99.90
2019-01-20T10:05:18.621Z,99.90
2019-01-20T10:07:44.930Z,99.90
2019-01-20T10:10:17.549Z,99.90
2019-01-20T10:12:43.859Z,99.90
2019-01-20T10:15:12.687Z,99.90
2019-01-20T10:17:38.893Z,99.90
2019-01-20T10:20:17.681Z,99.90
2019-01-20T10:22:43.882Z,99.90
2019-01-20T10:25:15.086Z,99.90
2019-01-20T10:27:38.422Z,99.90
2019-01-20T10:30:13.754Z,99.90
2019-01-20T10:32:39.966Z,99.90
2019-01-20T10:35:06.882Z,99.90
2019-01-20T10:37:33.999Z,99.90
2019-01-20T10:40:00.241Z,99.90
2019-01-20T10:42:26.524Z,99.90
2019-01-20T10:44:52.766Z,99.90
2019-01-20T10:47:18.971Z,99.90
2019-01-20T10:49:50.617Z,99.90
2019-01-20T10:52:16.713Z,99.90
2019-01-20T10:54:44.875Z,99.90
2019-01-20T10:57:11.075Z,99.90
2019-01-20T10:59:37.298Z,99.90
2019-01-20T11:02:03.694Z,99.90
2019-01-20T11:04:29.919Z,99.90
2019-01-20T11:06:56.123Z,99.90
2019-01-20T11:09:22.238Z,99.90
2019-01-20T11:11:48.495Z,99.90
2019-01-20T11:14:15.010Z,99.90
2019-01-20T11:16:41.619Z,99.90
2019-01-20T11:19:07.846Z,99.90
2019-01-20T11:21:34.054Z,99.90
2019-01-20T11:24:00.470Z,99.90
2019-01-20T11:26:27.070Z,99.90
2019-01-20T11:28:53.270Z,99.90
2019-01-20T11:31:19.494Z,99.90
2019-01-20T11:33:45.718Z,99.90
2019-01-20T11:36:11.945Z,99.90
2019-01-20T11:38:38.151Z,99.90
2019-01-20T11:41:06.319Z,99.90
2019-01-20T11:43:32.539Z,99.90
2019-01-20T11:45:58.754Z,99.90
2019-01-20T11:48:24.967Z,99.90
2019-01-20T11:50:51.175Z,99.90
2019-01-20T11:53:17.488Z,99.90
2019-01-20T11:55:44.002Z,99.90
2019-01-20T11:58:10.197Z,99.90
2019-01-20T12:00:37.062Z,99.90
2019-01-20T12:03:03.773Z,99.90
2019-01-20T12:05:31.170Z,99.90
2019-01-20T12:07:57.488Z,99.90
2019-01-20T12:10:24.065Z,99.90
2019-01-20T12:12:52.198Z,99.90
2019-01-20T12:15:18.501Z,99.90
2019-01-20T12:17:45.022Z,99.90
2019-01-20T12:20:13.141Z,99.90
2019-01-20T12:22:39.463Z,99.90
2019-01-20T12:25:16.919Z,99.90
2019-01-20T12:27:43.146Z,99.90
2019-01-20T12:30:27.854Z,99.90
2019-01-20T12:32:54.082Z,99.90
2019-01-20T12:35:20.342Z,99.90
2019-01-20T12:37:46.798Z,99.90
2019-01-20T12:40:25.656Z,99.90
2019-01-20T12:42:52.114Z,99.90
2019-01-20T12:45:18.479Z,99.90
2019-01-20T12:47:44.837Z,99.90
2019-01-20T12:50:13.961Z,99.90
2019-01-20T12:52:40.259Z,99.90
2019-01-20T12:55:07.094Z,99.90
2019-01-20T12:57:33.303Z,99.90
2019-01-20T12:59:59.530Z,99.90
2019-01-20T13:02:26.002Z,99.90
2019-01-20T13:04:56.351Z,99.90
2019-01-20T13:07:20.355Z,99.90
2019-01-20T13:09:46.575Z,99.90
2019-01-20T13:12:12.824Z,99.90
2019-01-20T13:14:39.352Z,99.90
2019-01-20T13:17:05.753Z,99.90
2019-01-20T13:19:32.582Z,99.90
2019-01-20T13:22:02.378Z,99.90
2019-01-20T13:24:28.985Z,99.90
2019-01-20T13:26:55.187Z,99.90
2019-01-20T13:29:21.586Z,99.90
2019-01-20T13:31:47.875Z,99.90
2019-01-20T13:34:14.070Z,99.90
2019-01-20T13:36:40.296Z,99.90
2019-01-20T13:39:08.704Z,99.90
2019-01-20T13:41:34.918Z,99.90
2019-01-20T13:44:01.132Z,99.90
2019-01-20T13:46:27.354Z,99.90
2019-01-20T13:48:53.550Z,99.90
2019-01-20T13:51:19.768Z,99.90
2019-01-20T13:53:46.058Z,99.90
2019-01-20T13:56:12.291Z,99.90
2019-01-20T13:58:38.495Z,99.90
2019-01-20T14:01:04.893Z,99.90
2019-01-20T14:03:31.115Z,99.90
2019-01-20T14:05:57.315Z,99.90
2019-01-20T14:08:23.530Z,99.90
2019-01-20T14:10:49.725Z,99.90
2019-01-20T14:13:15.954Z,99.90
2019-01-20T14:15:42.163Z,99.90
2019-01-20T14:18:08.374Z,99.90
2019-01-20T14:20:34.587Z,99.90
2019-01-20T14:23:00.905Z,99.90
2019-01-20T14:25:28.625Z,99.90
2019-01-20T14:27:55.035Z,99.90
2019-01-20T14:30:31.951Z,99.90
2019-01-20T14:33:18.127Z,99.90
2019-01-20T14:35:44.423Z,99.90
2019-01-20T14:38:10.642Z,99.90
2019-01-20T14:40:36.950Z,99.90
2019-01-20T14:43:03.774Z,99.90
2019-01-20T14:45:30.154Z,99.90
2019-01-20T14:47:56.602Z,99.90
2019-01-20T14:50:24.735Z,99.90
2019-01-20T14:52:51.034Z,99.90
2019-01-20T14:55:17.487Z,99.90
2019-01-20T14:57:43.790Z,99.90
2019-01-20T15:00:16.690Z,99.90
2019-01-20T15:02:43.098Z,99.90
2019-01-20T15:05:09.624Z,99.90
2019-01-20T15:07:35.837Z,99.90
2019-01-20T15:10:05.862Z,99.90
2019-01-20T15:12:32.171Z,98.00
2019-01-20T15:14:58.428Z,96.90
2019-01-20T15:17:24.635Z,95.00
2019-01-20T15:19:51.227Z,92.20
2019-01-20T15:22:17.456Z,90.10
2019-01-20T15:24:43.808Z,93.00
2019-01-20T15:27:10.030Z,96.70
2019-01-20T15:29:36.330Z,99.90
2019-01-20T15:32:02.773Z,99.90
2019-01-20T15:34:28.979Z,99.90
2019-01-20T15:36:55.214Z,99.90
2019-01-20T15:39:21.642Z,99.90
2019-01-20T15:41:47.907Z,99.90
2019-01-20T15:44:14.171Z,99.90
2019-01-20T15:46:40.402Z,99.90
2019-01-20T15:49:06.604Z,99.90
2019-01-20T15:51:32.941Z,99.90
2019-01-20T15:53:59.143Z,99.90
2019-01-20T15:56:25.347Z,99.90
2019-01-20T15:58:51.575Z,99.90
2019-01-20T16:01:17.786Z,99.90
2019-01-20T16:03:44.102Z,99.90
2019-01-20T16:06:10.433Z,99.90
2019-01-20T16:08:36.666Z,99.90
2019-01-20T16:11:03.046Z,99.90
2019-01-20T16:13:29.276Z,99.90
2019-01-20T16:16:04.805Z,99.90
2019-01-20T16:18:31.049Z,99.90
2019-01-20T16:20:57.267Z,99.90
2019-01-20T16:23:23.667Z,99.90
2019-01-20T16:25:49.875Z,99.90
2019-01-20T16:28:17.023Z,99.90
2019-01-20T16:30:43.414Z,99.90
2019-01-20T16:33:09.830Z,99.90
2019-01-20T16:35:36.045Z,99.90
2019-01-20T16:38:02.581Z,99.90
2019-01-20T16:40:28.883Z,99.90
2019-01-20T16:42:55.399Z,99.90
2019-01-20T16:45:32.872Z,99.90
2019-01-20T16:47:56.293Z,99.90
2019-01-20T16:50:24.053Z,99.90
2019-01-20T16:52:54.536Z,99.90
2019-01-20T16:55:19.882Z,99.90
2019-01-20T16:57:46.091Z,99.90
2019-01-20T17:00:30.451Z,99.90
2019-01-20T17:02:56.857Z,99.90
2019-01-20T17:05:26.783Z,99.90
2019-01-20T17:07:51.598Z,99.90
2019-01-20T17:10:20.114Z,99.90
2019-01-20T17:12:46.762Z,99.90
2019-01-20T17:15:16.083Z,99.90
2019-01-20T17:17:42.290Z,99.90
2019-01-20T17:20:10.212Z,99.90
2019-01-20T17:22:36.530Z,99.90
2019-01-20T17:25:05.751Z,99.90
2019-01-20T17:27:31.959Z,99.90
2019-01-20T17:29:58.162Z,99.90
2019-01-20T17:32:24.391Z,99.90
2019-01-20T17:34:56.181Z,99.90
2019-01-20T17:37:22.516Z,99.90
2019-01-20T17:39:48.731Z,99.90
2019-01-20T17:42:14.950Z,99.90
2019-01-20T17:44:41.152Z,99.90
2019-01-20T17:47:07.363Z,99.90
2019-01-20T17:49:33.565Z,99.90
2019-01-20T17:51:59.778Z,99.90
2019-01-20T17:54:25.978Z,99.90
2019-01-20T17:56:52.204Z,99.90
2019-01-20T17:59:18.399Z,99.90
2019-01-20T18:01:44.618Z,99.90
2019-01-20T18:04:10.823Z,99.90
2019-01-20T18:06:37.035Z,99.90
2019-01-20T18:09:07.158Z,99.90
2019-01-20T18:11:33.475Z,99.90
2019-01-20T18:13:59.706Z,99.90
2019-01-20T18:16:25.996Z,99.90
2019-01-20T18:18:52.227Z,99.90
2019-01-20T18:21:18.458Z,99.90
2019-01-20T18:23:44.683Z,99.90
2019-01-20T18:26:10.878Z,99.90
2019-01-20T18:28:37.110Z,99.90
2019-01-20T18:31:03.410Z,99.90
2019-01-20T18:33:29.615Z,99.90
2019-01-20T18:35:55.843Z,99.90
2019-01-20T18:38:22.065Z,99.90
2019-01-20T18:40:48.392Z,99.90
2019-01-20T18:43:14.586Z,99.90
2019-01-20T18:45:40.803Z,99.90
2019-01-20T18:48:07.206Z,99.90
2019-01-20T18:50:35.435Z,99.90
2019-01-20T18:53:01.754Z,99.90
2019-01-20T18:55:28.032Z,99.90
2019-01-20T18:57:54.230Z,99.90
2019-01-20T19:00:22.751Z,99.90
2019-01-20T19:02:49.255Z,99.90
2019-01-20T19:05:16.578Z,99.90
2019-01-20T19:07:42.778Z,99.90
2019-01-20T19:10:12.406Z,99.90
2019-01-20T19:12:38.603Z,99.90
2019-01-20T19:15:08.326Z,99.90
2019-01-20T19:17:34.530Z,99.90
2019-01-20T19:20:00.895Z,99.90
2019-01-20T19:22:27.178Z,99.90
2019-01-20T19:24:53.407Z,99.90
2019-01-20T19:27:19.606Z,99.90
2019-01-20T19:29:45.822Z,99.90
2019-01-20T19:32:12.047Z,99.90
2019-01-20T19:34:38.262Z,99.90
2019-01-20T19:37:04.507Z,99.90
2019-01-20T19:39:30.717Z,99.90
2019-01-20T19:41:56.931Z,99.90
2019-01-20T19:44:23.151Z,99.90
2019-01-20T19:46:49.366Z,99.90
2019-01-20T19:49:15.566Z,99.90
2019-01-20T19:51:41.804Z,99.90
2019-01-20T19:54:08.022Z,99.90
2019-01-20T19:56:34.225Z,99.90
2019-01-20T19:59:00.451Z,99.90
2019-01-20T20:01:30.761Z,99.90
2019-01-20T20:03:54.839Z,99.90
2019-01-20T20:06:21.204Z,99.90
2019-01-20T20:09:09.188Z,99.90
2019-01-20T20:11:35.417Z,99.90
2019-01-20T20:14:01.752Z,99.90
2019-01-20T20:16:27.959Z,99.90
2019-01-20T20:18:54.180Z,99.90
2019-01-20T20:21:20.393Z,99.90
2019-01-20T20:23:46.747Z,99.90
2019-01-20T20:26:12.958Z,99.90
2019-01-20T20:28:39.171Z,99.90
2019-01-20T20:31:05.599Z,99.90
2019-01-20T20:33:31.802Z,99.90
2019-01-20T20:35:58.023Z,99.90
2019-01-20T20:38:24.234Z,99.90
2019-01-20T20:40:50.458Z,99.90
2019-01-20T20:43:16.662Z,99.90
2019-01-20T20:45:42.831Z,99.90
2019-01-20T20:48:09.411Z,99.90
2019-01-20T20:50:35.909Z,99.90
2019-01-20T20:53:02.411Z,99.90
2019-01-20T20:55:28.635Z,99.90
2019-01-20T20:57:54.834Z,99.90
2019-01-20T21:00:24.043Z,99.90
2019-01-20T21:02:50.263Z,99.90
2019-01-20T21:05:16.771Z,99.90
2019-01-20T21:07:43.186Z,99.90
2019-01-20T21:10:14.723Z,99.90
2019-01-20T21:12:41.140Z,99.90
2019-01-20T21:15:10.042Z,99.90
2019-01-20T21:17:36.285Z,99.90
2019-01-20T21:20:05.998Z,99.90
2019-01-20T21:22:32.214Z,99.90
2019-01-20T21:24:58.427Z,99.90
2019-01-20T21:27:24.634Z,99.90
2019-01-20T21:29:50.858Z,99.90
2019-01-20T21:32:17.067Z,99.90
2019-01-20T21:34:43.303Z,99.90
2019-01-20T21:37:09.518Z,99.90
2019-01-20T21:39:35.738Z,99.90
2019-01-20T21:42:01.974Z,99.90
2019-01-20T21:44:28.194Z,99.90
2019-01-20T21:46:54.402Z,99.90
2019-01-20T21:49:20.623Z,99.90
2019-01-20T21:51:47.190Z,99.90
2019-01-20T21:54:13.494Z,99.90
2019-01-20T21:56:39.712Z,99.90
2019-01-20T21:59:08.731Z,99.90
2019-01-20T22:01:35.273Z,99.90
2019-01-20T22:04:01.482Z,99.90
2019-01-20T22:06:27.718Z,99.90
2019-01-20T22:08:53.922Z,99.90
2019-01-20T22:11:20.139Z,99.90
2019-01-20T22:13:46.345Z,99.90
2019-01-20T22:16:12.563Z,99.90
2019-01-20T22:18:38.776Z,99.90
2019-01-20T22:21:05.098Z,99.90
2019-01-20T22:23:31.299Z,99.90
2019-01-20T22:25:57.499Z,99.90
2019-01-20T22:28:23.830Z,99.90
2019-01-20T22:30:50.039Z,99.90
2019-01-20T22:33:16.259Z,99.90
2019-01-20T22:35:42.450Z,99.90
2019-01-20T22:38:08.690Z,99.90
2019-01-20T22:40:34.889Z,99.90
2019-01-20T22:43:01.120Z,99.90
2019-01-20T22:45:27.313Z,99.90
2019-01-20T22:47:53.635Z,99.90
2019-01-20T22:50:25.802Z,99.90
2019-01-20T22:52:52.432Z,99.90
2019-01-20T22:55:18.753Z,99.90
2019-01-20T22:57:45.083Z,99.90
2019-01-20T23:00:21.411Z,99.90
2019-01-20T23:02:47.810Z,99.90
2019-01-20T23:05:14.470Z,99.90
2019-01-20T23:07:40.703Z,99.90
2019-01-20T23:10:07.227Z,99.90
2019-01-20T23:12:33.430Z,99.90
2019-01-20T23:14:59.815Z,99.90
2019-01-20T23:17:26.023Z,99.90
2019-01-20T23:19:52.222Z,99.90
2019-01-20T23:22:18.445Z,99.90
2019-01-20T23:24:44.651Z,99.90
2019-01-20T23:27:10.870Z,99.90
2019-01-20T23:29:37.084Z,99.90
2019-01-20T23:32:03.515Z,99.90
2019-01-20T23:34:29.775Z,99.90
2019-01-20T23:36:55.998Z,99.90
2019-01-20T23:39:22.223Z,99.90
2019-01-20T23:41:48.477Z,99.90
2019-01-20T23:44:14.679Z,99.90
2019-01-20T23:46:40.870Z,99.90
2019-01-20T23:49:07.134Z,99.90
2019-01-20T23:51:33.330Z,99.90
2019-01-20T23:53:59.559Z,99.90
2019-01-20T23:56:25.754Z,99.90
2019-01-20T23:58:51.983Z,99.90
